Time;durP1;ratioP1;P1;durP2;ratioP2;P2;SDS_P1;SDS_P2;PMS_P1;PMS_P2;Temp;Humidity;BMP_temperature;BMP_pressure;BME280_temperature;BME280_humidity;BME280_pressure;Samples;Min_cycle;Max_cycle;Signal;HPM_P1;HPM_P2
2022/10/11 00:01:54;;;;;;;0.50;0.40;;;9.00;99.90;;;;;;5073383;28;20200;-77
2022/10/11 00:04:21;;;;;;;0.50;0.40;;;9.00;99.90;;;;;;5071892;28;20204;-77
2022/10/11 00:06:48;;;;;;;0.50;0.40;;;8.90;99.90;;;;;;5072626;28;20694;-77
2022/10/11 00:09:15;;;;;;;3.30;3.10;;;8.90;99.90;;;;;;5073029;28;20201;-77
2022/10/11 00:11:42;;;;;;;0.50;0.40;;;9.00;99.90;;;;;;5072981;28;20247;-77
2022/10/11 00:14:09;;;;;;;0.50;0.40;;;9.00;99.90;;;;;;5072451;28;20204;-77
2022/10/11 00:16:37;;;;;;;0.50;0.40;;;8.90;99.90;;;;;;5072267;28;20197;-77
2022/10/11 00:19:05;;;;;;;1.90;1.83;;;8.80;99.90;;;;;;5072522;28;20766;-76
2022/10/11 00:21:32;;;;;;;0.50;0.40;;;8.80;99.90;;;;;;5072424;28;20212;-77
2022/10/11 00:23:59;;;;;;;0.50;0.40;;;8.80;99.90;;;;;;5072343;28;20676;-77
2022/10/11 00:26:26;;;;;;;0.50;0.40;;;8.70;99.90;;;;;;5072280;28;20222;-76
2022/10/11 00:28:52;;;;;;;0.50;0.40;;;8.70;99.90;;;;;;5072448;28;20222;-77
2022/10/11 00:31:19;;;;;;;0.50;0.40;;;8.60;99.90;;;;;;5072543;28;20258;-77
2022/10/11 00:33:46;;;;;;;0.50;0.40;;;8.60;99.90;;;;;;5072456;28;20204;-76
2022/10/11 00:36:16;;;;;;;0.50;0.40;;;8.60;99.90;;;;;;5071281;28;20265;-76
2022/10/11 00:38:43;;;;;;;0.50;0.40;;;8.70;99.90;;;;;;5072228;28;20612;-77
2022/10/11 00:41:10;;;;;;;0.50;0.40;;;8.70;99.90;;;;;;5072122;28;20217;-77
2022/10/11 00:43:37;;;;;;;0.50;0.40;;;8.60;99.90;;;;;;5072181;28;20197;-77
2022/10/11 00:46:22;;;;;;;0.50;0.40;;;8.70;99.90;;;;;;5071471;28;20212;-77
2022/10/11 00:48:53;;;;;;;0.50;0.50;;;8.70;99.90;;;;;;5072135;28;20799;-76
2022/10/11 00:51:27;;;;;;;0.50;0.40;;;8.70;99.90;;;;;;5072085;28;20382;-77
2022/10/11 00:53:55;;;;;;;0.50;0.40;;;8.70;99.90;;;;;;5071771;28;20202;-76
2022/10/11 00:56:26;;;;;;;0.50;0.40;;;8.70;99.90;;;;;;5071679;28;20204;-76
2022/10/11 00:58:55;;;;;;;0.50;0.40;;;8.60;99.90;;;;;;5071782;28;20177;-77
2022/10/11 01:01:22;;;;;;;0.50;0.40;;;8.60;99.90;;;;;;5071821;28;20221;-77
2022/10/11 01:03:49;;;;;;;0.50;0.40;;;8.60;99.90;;;;;;5071291;28;20197;-77
2022/10/11 01:06:16;;;;;;;0.50;0.43;;;8.70;99.90;;;;;;5071354;28;20223;-77
2022/10/11 01:08:45;;;;;;;0.50;0.40;;;8.70;99.90;;;;;;5071616;28;20236;-77
2022/10/11 01:11:14;;;;;;;0.50;0.40;;;8.60;99.90;;;;;;5071221;28;20220;-77
2022/10/11 01:13:51;;;;;;;0.50;0.40;;;8.60;99.90;;;;;;5071498;28;20198;-76
2022/10/11 01:16:26;;;;;;;1.17;1.10;;;8.60;99.90;;;;;;5071558;28;20285;-77
2022/10/11 01:19:01;;;;;;;0.50;0.40;;;8.60;99.90;;;;;;5071900;28;20182;-76
2022/10/11 01:21:38;;;;;;;0.50;0.40;;;8.60;99.90;;;;;;5071657;28;20223;-77
2022/10/11 01:24:31;;;;;;;0.50;0.40;;;8.60;99.90;;;;;;5071365;28;20287;-76
2022/10/11 01:27:38;;;;;;;0.50;0.40;;;8.60;99.90;;;;;;5071268;28;20713;-76
2022/10/11 01:30:19;;;;;;;0.50;0.40;;;8.60;99.90;;;;;;5071551;28;20748;-77
2022/10/11 01:32:53;;;;;;;1.15;0.80;;;8.50;99.90;;;;;;5071470;28;20182;-77
2022/10/11 01:35:25;;;;;;;0.50;0.40;;;8.50;99.90;;;;;;5071053;28;20283;-76
2022/10/11 01:37:57;;;;;;;0.50;0.40;;;8.50;99.90;;;;;;5071432;28;20709;-77
2022/10/11 01:40:27;;;;;;;0.50;0.40;;;8.50;99.90;;;;;;5071778;28;20579;-77
2022/10/11 01:42:55;;;;;;;0.50;0.40;;;8.50;99.90;;;;;;5071139;28;20197;-77
2022/10/11 01:45:24;;;;;;;0.60;0.60;;;8.40;99.90;;;;;;5070920;28;20194;-76
2022/10/11 01:48:02;;;;;;;0.50;0.40;;;8.40;99.90;;;;;;5075509;28;20206;-77
2022/10/11 01:50:39;;;;;;;0.50;0.40;;;8.50;99.90;;;;;;5078047;28;20227;-76
2022/10/11 01:53:23;;;;;;;0.50;0.40;;;8.50;99.90;;;;;;5077603;28;20194;-77
2022/10/11 01:55:54;;;;;;;0.50;0.40;;;8.50;99.90;;;;;;5077735;28;20184;-77
2022/10/11 01:58:31;;;;;;;0.50;0.40;;;8.40;99.90;;;;;;5078162;28;20267;-77
2022/10/11 02:01:06;;;;;;;0.50;0.40;;;8.50;99.90;;;;;;5077996;28;20223;-76
2022/10/11 02:03:43;;;;;;;0.50;0.40;;;8.50;99.90;;;;;;5077081;28;20204;-77
2022/10/11 02:06:16;;;;;;;0.50;0.40;;;8.40;99.90;;;;;;5077784;28;20224;-77
2022/10/11 02:08:51;;;;;;;0.73;0.73;;;8.40;99.90;;;;;;5077947;28;20189;-76
2022/10/11 02:11:22;;;;;;;0.50;0.40;;;8.40;99.90;;;;;;5077625;28;20217;-77
2022/10/11 02:13:55;;;;;;;0.50;0.40;;;8.40;99.90;;;;;;5077374;28;20185;-76
2022/10/11 02:16:28;;;;;;;0.50;0.40;;;8.40;99.90;;;;;;5078064;28;20178;-77
2022/10/11 02:18:56;;;;;;;0.50;0.40;;;8.30;99.90;;;;;;5077546;28;20651;-77
2022/10/11 02:21:24;;;;;;;0.50;0.40;;;8.30;99.90;;;;;;5077505;28;20220;-77
2022/10/11 02:23:54;;;;;;;0.50;0.40;;;8.20;99.90;;;;;;5077400;28;20208;-77
2022/10/11 02:26:24;;;;;;;0.50;0.40;;;8.20;99.90;;;;;;5077780;28;20225;-76
2022/10/11 02:28:55;;;;;;;0.50;0.40;;;8.10;99.90;;;;;;5077593;28;20204;-77
2022/10/11 02:31:25;;;;;;;0.55;0.55;;;8.10;99.90;;;;;;5077660;28;20227;-77
2022/10/11 02:33:58;;;;;;;0.65;0.65;;;8.10;99.90;;;;;;5077418;28;20204;-77
2022/10/11 02:36:30;;;;;;;1.02;0.93;;;8.00;99.90;;;;;;5077703;28;20204;-77
2022/10/11 02:39:01;;;;;;;0.88;0.85;;;8.00;99.90;;;;;;5077437;28;20186;-76
2022/10/11 02:41:32;;;;;;;0.50;0.40;;;8.10;99.90;;;;;;5077365;28;20217;-76
2022/10/11 02:44:03;;;;;;;0.60;0.60;;;8.10;99.90;;;;;;5076644;28;20181;-76
2022/10/11 02:46:31;;;;;;;2.50;1.38;;;8.10;99.90;;;;;;5077783;28;20205;-76
2022/10/11 02:48:59;;;;;;;0.50;0.50;;;8.20;99.90;;;;;;5077494;28;20567;-77
2022/10/11 02:51:29;;;;;;;0.63;0.57;;;8.20;99.90;;;;;;5076907;28;20244;-77
2022/10/11 02:53:56;;;;;;;1.30;0.98;;;8.20;99.90;;;;;;5077957;28;20196;-76
2022/10/11 02:56:23;;;;;;;0.50;0.50;;;8.20;99.90;;;;;;5077371;28;20265;-76
2022/10/11 02:58:50;;;;;;;0.50;0.40;;;8.20;99.90;;;;;;5074894;28;20197;-75
2022/10/11 03:01:16;;;;;;;0.50;0.40;;;8.20;99.90;;;;;;5074498;28;20561;-77
2022/10/11 03:03:45;;;;;;;0.50;0.50;;;8.20;99.90;;;;;;5073594;28;20192;-77
2022/10/11 03:06:11;;;;;;;0.50;0.50;;;8.20;99.90;;;;;;5073603;28;20221;-77
2022/10/11 03:08:38;;;;;;;0.50;0.40;;;8.10;99.90;;;;;;5073578;28;20293;-76
2022/10/11 03:11:05;;;;;;;0.50;0.40;;;8.10;99.90;;;;;;5074257;28;20217;-76
2022/10/11 03:13:32;;;;;;;0.75;0.75;;;8.10;99.90;;;;;;5073889;28;20258;-77
2022/10/11 03:15:59;;;;;;;0.60;0.40;;;8.10;99.90;;;;;;5073775;28;20203;-77
2022/10/11 03:18:26;;;;;;;0.60;0.40;;;8.00;99.90;;;;;;5073860;28;20211;-77
2022/10/11 03:20:54;;;;;;;0.52;0.50;;;7.90;99.90;;;;;;5073475;28;20213;-77
2022/10/11 03:23:21;;;;;;;0.50;0.40;;;7.90;99.90;;;;;;5073728;28;20688;-76
2022/10/11 03:25:48;;;;;;;0.50;0.40;;;7.90;99.90;;;;;;5073457;28;20213;-77
2022/10/11 03:28:14;;;;;;;0.50;0.40;;;7.80;99.90;;;;;;5073751;28;20729;-77
2022/10/11 03:30:41;;;;;;;2.13;2.03;;;7.80;99.90;;;;;;5073499;28;20214;-77
2022/10/11 03:33:08;;;;;;;0.50;0.50;;;7.80;99.90;;;;;;5073821;28;20616;-77
2022/10/11 03:35:35;;;;;;;0.50;0.40;;;7.80;99.90;;;;;;5073064;28;20197;-77
2022/10/11 03:38:03;;;;;;;0.50;0.40;;;7.80;99.90;;;;;;5073929;28;20227;-77
2022/10/11 03:40:30;;;;;;;0.50;0.40;;;7.70;99.90;;;;;;5073498;28;20214;-77
2022/10/11 03:42:57;;;;;;;0.50;0.40;;;7.70;99.90;;;;;;5073538;28;20208;-77
2022/10/11 03:45:24;;;;;;;0.68;0.50;;;7.70;99.90;;;;;;5073054;28;20189;-76
2022/10/11 03:47:51;;;;;;;0.93;0.82;;;7.80;99.90;;;;;;5073117;28;20300;-78
2022/10/11 03:50:18;;;;;;;3.00;1.48;;;7.80;99.90;;;;;;5072974;28;20278;-77
2022/10/11 03:52:45;;;;;;;0.50;0.40;;;7.90;99.90;;;;;;5073277;28;20205;-77
2022/10/11 03:55:13;;;;;;;0.50;0.40;;;7.90;99.90;;;;;;5072920;28;20243;-77
2022/10/11 03:57:40;;;;;;;0.50;0.40;;;7.90;99.90;;;;;;5073176;28;20578;-77
2022/10/11 04:00:08;;;;;;;0.50;0.40;;;7.80;99.90;;;;;;5072783;28;20709;-77
2022/10/11 04:02:35;;;;;;;0.50;0.40;;;7.70;99.90;;;;;;5072693;28;20197;-77
2022/10/11 04:05:02;;;;;;;0.50;0.43;;;7.70;99.90;;;;;;5072498;28;20218;-78
2022/10/11 04:07:29;;;;;;;0.98;0.98;;;7.60;99.90;;;;;;5073238;28;20301;-77
2022/10/11 04:09:55;;;;;;;0.50;0.40;;;7.50;99.90;;;;;;5072091;28;20214;-77
2022/10/11 04:12:24;;;;;;;0.50;0.40;;;7.50;99.90;;;;;;5072341;28;20670;-76
2022/10/11 04:14:50;;;;;;;0.50;0.40;;;7.50;99.90;;;;;;5072585;28;20197;-77
2022/10/11 04:17:18;;;;;;;0.50;0.40;;;7.60;99.90;;;;;;5072696;28;20194;-78
2022/10/11 04:19:45;;;;;;;0.50;0.40;;;7.60;99.90;;;;;;5068299;28;20610;-77
2022/10/11 04:22:11;;;;;;;1.25;1.25;;;7.50;99.90;;;;;;5063796;28;20255;-77
2022/10/11 04:24:39;;;;;;;0.50;0.45;;;7.50;99.90;;;;;;5072336;28;20288;-78
2022/10/11 04:27:05;;;;;;;0.50;0.40;;;7.50;99.90;;;;;;5072413;28;20213;-76
2022/10/11 04:29:34;;;;;;;0.70;0.70;;;7.50;99.90;;;;;;5072248;28;20263;-77
2022/10/11 04:32:01;;;;;;;0.50;0.40;;;7.50;99.90;;;;;;5072363;28;20209;-78
2022/10/11 04:34:27;;;;;;;0.50;0.40;;;7.50;99.90;;;;;;5072542;28;20563;-76
2022/10/11 04:36:54;;;;;;;0.80;0.80;;;7.60;99.90;;;;;;5072340;28;20593;-77
2022/10/11 04:39:21;;;;;;;0.60;0.60;;;7.60;99.90;;;;;;5072959;28;20201;-78
2022/10/11 04:41:48;;;;;;;0.50;0.50;;;7.60;99.90;;;;;;5073046;28;20292;-77
2022/10/11 04:44:15;;;;;;;0.85;0.85;;;7.60;99.90;;;;;;5072793;28;20288;-78
2022/10/11 04:46:43;;;;;;;0.50;0.40;;;7.60;99.90;;;;;;5074019;28;20308;-77
2022/10/11 04:49:10;;;;;;;0.50;0.50;;;7.60;99.90;;;;;;5073383;28;20491;-78
2022/10/11 04:51:37;;;;;;;0.50;0.40;;;7.60;99.90;;;;;;5072891;28;20210;-77
2022/10/11 04:54:03;;;;;;;0.60;0.60;;;7.60;99.90;;;;;;5072967;28;20319;-77
2022/10/11 04:56:30;;;;;;;1.25;1.10;;;7.60;99.90;;;;;;5072739;28;20303;-77
2022/10/11 04:58:57;;;;;;;0.77;0.77;;;7.60;99.90;;;;;;5072754;28;20290;-77
2022/10/11 05:01:24;;;;;;;1.48;0.85;;;7.60;99.90;;;;;;5072761;28;20225;-77
2022/10/11 05:03:52;;;;;;;0.60;0.60;;;7.60;99.90;;;;;;5071753;28;20703;-77
2022/10/11 05:06:19;;;;;;;0.50;0.40;;;7.50;99.90;;;;;;5072487;28;20200;-78
2022/10/11 05:08:46;;;;;;;3.90;3.58;;;7.50;99.90;;;;;;5073615;28;20216;-78
2022/10/11 05:11:15;;;;;;;0.82;0.82;;;7.50;99.90;;;;;;5073321;28;20636;-78
2022/10/11 05:13:43;;;;;;;0.50;0.40;;;7.50;99.90;;;;;;5073574;28;20250;-77
2022/10/11 05:16:10;;;;;;;0.77;0.75;;;7.40;99.90;;;;;;5073753;28;20219;-78
2022/10/11 05:18:37;;;;;;;0.50;0.40;;;7.40;99.90;;;;;;5073253;28;20195;-77
2022/10/11 05:21:08;;;;;;;0.50;0.40;;;7.30;99.90;;;;;;5072461;28;20228;-77
2022/10/11 05:23:36;;;;;;;0.50;0.40;;;7.30;99.90;;;;;;5073099;28;20186;-77
2022/10/11 05:26:04;;;;;;;0.50;0.40;;;7.30;99.90;;;;;;5073573;28;20227;-78
2022/10/11 05:28:31;;;;;;;0.50;0.40;;;7.20;99.90;;;;;;5075021;28;20576;-77
2022/10/11 05:30:57;;;;;;;0.50;0.45;;;7.20;99.90;;;;;;5072306;28;20224;-78
2022/10/11 05:33:24;;;;;;;4.00;3.45;;;7.20;99.90;;;;;;5072546;28;20207;-77
2022/10/11 05:35:51;;;;;;;0.50;0.40;;;7.10;99.90;;;;;;5072682;28;20198;-78
2022/10/11 05:38:20;;;;;;;0.50;0.40;;;7.00;99.90;;;;;;5074217;28;20195;-77
2022/10/11 05:40:47;;;;;;;0.50;0.40;;;6.90;99.90;;;;;;5072679;28;20227;-78
2022/10/11 05:43:14;;;;;;;0.50;0.40;;;6.90;99.90;;;;;;5073333;28;20253;-78
2022/10/11 05:45:42;;;;;;;0.50;0.40;;;6.70;99.90;;;;;;5065492;28;20214;-77
2022/10/11 05:48:10;;;;;;;0.98;0.98;;;6.80;99.90;;;;;;5057144;28;20218;-77
2022/10/11 05:50:37;;;;;;;0.50;0.40;;;6.90;99.90;;;;;;5050558;28;20314;-77
2022/10/11 05:53:05;;;;;;;0.50;0.40;;;6.90;99.90;;;;;;5051151;28;20207;-77
2022/10/11 05:55:37;;;;;;;0.50;0.40;;;6.90;99.90;;;;;;5059862;28;20197;-76
2022/10/11 05:58:04;;;;;;;0.50;0.40;;;6.90;99.90;;;;;;5070615;28;20260;-76
2022/10/11 06:00:31;;;;;;;0.50;0.40;;;6.80;99.90;;;;;;5069463;28;20302;-77
2022/10/11 06:02:58;;;;;;;1.30;1.30;;;6.80;99.90;;;;;;5071470;28;20194;-78
2022/10/11 06:05:24;;;;;;;0.50;0.40;;;6.80;99.90;;;;;;5071171;28;20213;-77
2022/10/11 06:07:51;;;;;;;1.02;1.02;;;6.80;99.90;;;;;;5070741;28;20217;-76
2022/10/11 06:10:18;;;;;;;0.80;0.80;;;6.90;99.90;;;;;;5070898;28;20223;-76
2022/10/11 06:12:47;;;;;;;0.50;0.50;;;7.10;99.90;;;;;;5070720;28;20574;-77
2022/10/11 06:15:13;;;;;;;0.50;0.40;;;7.20;99.90;;;;;;5071011;28;20325;-77
2022/10/11 06:17:40;;;;;;;0.60;0.60;;;7.20;99.90;;;;;;5071109;28;20280;-76
2022/10/11 06:20:08;;;;;;;0.50;0.40;;;7.30;99.90;;;;;;5070869;28;20217;-77
2022/10/11 06:22:35;;;;;;;0.50;0.40;;;7.40;99.90;;;;;;5073483;28;20667;-77
2022/10/11 06:25:02;;;;;;;1.48;0.90;;;7.50;99.90;;;;;;5071958;28;20182;-77
2022/10/11 06:27:29;;;;;;;1.02;0.95;;;7.60;99.90;;;;;;5071305;28;20260;-77
2022/10/11 06:29:57;;;;;;;0.50;0.50;;;7.70;99.90;;;;;;5070269;28;20221;-77
2022/10/11 06:32:24;;;;;;;0.50;0.40;;;7.90;99.90;;;;;;5071094;28;20197;-76
2022/10/11 06:34:51;;;;;;;1.60;1.60;;;8.00;99.90;;;;;;5072618;28;20291;-77
2022/10/11 06:37:18;;;;;;;0.98;0.98;;;8.10;99.90;;;;;;5074158;28;20201;-76
2022/10/11 06:39:45;;;;;;;3.92;2.60;;;8.20;99.90;;;;;;5074449;28;20209;-76
2022/10/11 06:42:12;;;;;;;1.83;1.33;;;8.30;99.90;;;;;;5073629;28;20240;-76
2022/10/11 06:44:39;;;;;;;0.50;0.40;;;8.50;99.90;;;;;;5074472;28;20194;-77
2022/10/11 06:47:08;;;;;;;1.45;1.35;;;8.60;99.90;;;;;;5074359;28;20295;-77
2022/10/11 06:49:35;;;;;;;0.50;0.50;;;8.70;99.90;;;;;;5074555;28;20222;-77
2022/10/11 06:52:02;;;;;;;1.17;1.08;;;8.80;99.90;;;;;;5074391;28;20181;-77
2022/10/11 06:54:29;;;;;;;0.50;0.40;;;8.90;99.90;;;;;;5072801;28;20205;-77
2022/10/11 06:56:56;;;;;;;1.17;1.17;;;8.90;99.90;;;;;;5072617;28;20198;-76
2022/10/11 06:59:23;;;;;;;0.98;0.98;;;9.00;99.90;;;;;;5072193;28;20622;-77
2022/10/11 07:01:49;;;;;;;2.25;2.15;;;9.10;99.90;;;;;;5072261;28;20232;-76
2022/10/11 07:04:18;;;;;;;0.98;0.98;;;9.20;99.90;;;;;;5071317;28;20202;-77
2022/10/11 07:06:44;;;;;;;0.52;0.52;;;9.30;99.90;;;;;;5073206;28;20289;-77
2022/10/11 07:09:11;;;;;;;0.60;0.60;;;9.40;99.90;;;;;;5074311;28;20221;-77
2022/10/11 07:11:38;;;;;;;4.90;3.40;;;9.50;99.90;;;;;;5074858;28;20204;-77
2022/10/11 07:14:06;;;;;;;0.50;0.40;;;9.50;99.90;;;;;;5075614;28;20232;-77
2022/10/11 07:16:34;;;;;;;0.50;0.40;;;9.60;99.90;;;;;;5077205;28;20197;-77
2022/10/11 07:19:02;;;;;;;0.65;0.65;;;9.70;99.90;;;;;;5074534;28;20192;-77
2022/10/11 07:21:32;;;;;;;0.50;0.40;;;9.80;99.90;;;;;;5074260;28;20275;-76
2022/10/11 07:23:59;;;;;;;0.50;0.40;;;10.00;99.90;;;;;;5073509;28;20212;-77
2022/10/11 07:26:25;;;;;;;0.50;0.40;;;10.20;99.90;;;;;;5073449;28;20200;-77
2022/10/11 07:28:52;;;;;;;1.70;1.60;;;10.70;99.90;;;;;;5073717;28;20650;-77
2022/10/11 07:31:22;;;;;;;0.95;0.95;;;11.20;99.90;;;;;;5073674;28;20699;-77
2022/10/11 07:33:49;;;;;;;0.50;0.40;;;11.50;99.90;;;;;;5073364;28;20200;-77
2022/10/11 07:36:16;;;;;;;1.05;1.05;;;11.80;99.90;;;;;;5073858;28;20193;-77
2022/10/11 07:38:45;;;;;;;1.63;1.63;;;12.00;99.90;;;;;;5073372;28;20280;-77
2022/10/11 07:41:12;;;;;;;0.65;0.65;;;12.10;99.90;;;;;;5073535;28;20250;-77
2022/10/11 07:43:42;;;;;;;1.23;1.13;;;12.20;99.90;;;;;;5073383;28;20194;-77
2022/10/11 07:46:09;;;;;;;2.50;2.40;;;12.30;99.90;;;;;;5072496;28;20860;-77
2022/10/11 07:48:37;;;;;;;0.50;0.40;;;12.50;99.90;;;;;;5073280;28;20480;-77
2022/10/11 07:51:06;;;;;;;2.27;2.10;;;13.10;99.90;;;;;;5072979;28;20546;-77
2022/10/11 07:53:37;;;;;;;0.50;0.40;;;14.30;99.90;;;;;;5072951;28;20452;-77
2022/10/11 07:56:06;;;;;;;1.13;1.03;;;15.40;99.90;;;;;;5072907;28;20846;-77
2022/10/11 07:58:33;;;;;;;0.50;0.50;;;16.60;99.90;;;;;;5073792;28;20483;-76
2022/10/11 08:00:59;;;;;;;0.50;0.33;;;17.80;99.90;;;;;;5074264;28;20460;-78
2022/10/11 08:03:26;;;;;;;0.50;0.30;;;18.50;99.90;;;;;;5074060;28;20526;-78
2022/10/11 08:05:53;;;;;;;0.50;0.30;;;19.30;99.90;;;;;;5072800;28;20945;-76
2022/10/11 08:08:20;;;;;;;0.50;0.30;;;20.10;99.90;;;;;;5072392;28;20566;-76
2022/10/11 08:10:47;;;;;;;2.20;0.93;;;21.00;99.90;;;;;;5072729;28;20841;-76
2022/10/11 08:13:16;;;;;;;0.50;0.30;;;21.90;99.90;;;;;;5072787;28;20442;-75
2022/10/11 08:15:42;;;;;;;0.73;0.73;;;23.10;99.90;;;;;;5072855;28;20437;-76
2022/10/11 08:18:09;;;;;;;1.57;1.03;;;24.10;99.90;;;;;;5072712;28;20432;-76
2022/10/11 08:20:39;;;;;;;0.50;0.30;;;25.40;96.00;;;;;;5072251;28;20863;-76
2022/10/11 08:23:06;;;;;;;0.50;0.30;;;26.30;91.40;;;;;;5072581;28;20782;-76
2022/10/11 08:25:36;;;;;;;0.50;0.40;;;26.80;84.00;;;;;;5072199;28;20448;-76
2022/10/11 08:28:03;;;;;;;0.50;0.30;;;27.50;81.60;;;;;;5076264;28;20544;-77
2022/10/11 08:30:32;;;;;;;0.50;0.30;;;28.60;78.20;;;;;;5077991;28;20452;-77
2022/10/11 08:32:58;;;;;;;0.50;0.30;;;29.30;74.80;;;;;;5077891;28;20447;-76
2022/10/11 08:35:25;;;;;;;0.50;0.30;;;30.00;69.40;;;;;;5072138;28;20527;-76
2022/10/11 08:37:52;;;;;;;0.50;0.30;;;30.10;62.60;;;;;;5072120;28;20436;-76
2022/10/11 08:40:21;;;;;;;0.50;0.30;;;30.30;63.20;;;;;;5072384;28;20471;-76
2022/10/11 08:42:54;;;;;;;0.50;0.30;;;30.50;62.00;;;;;;5072026;28;20952;-76
2022/10/11 08:45:29;;;;;;;0.50;0.30;;;30.70;60.20;;;;;;5071972;28;20425;-76
2022/10/11 08:48:06;;;;;;;0.50;0.40;;;30.80;59.50;;;;;;5072090;28;20455;-77
2022/10/11 08:50:33;;;;;;;0.50;0.30;;;31.20;59.00;;;;;;5071661;28;20555;-76
2022/10/11 08:53:05;;;;;;;0.50;0.50;;;31.60;58.30;;;;;;5073183;28;20514;-77
2022/10/11 08:55:39;;;;;;;0.50;0.30;;;31.50;56.10;;;;;;5070982;28;20519;-76
2022/10/11 08:58:06;;;;;;;1.93;1.83;;;31.50;57.60;;;;;;5071159;28;20507;-76
2022/10/11 09:00:37;;;;;;;0.50;0.30;;;30.70;55.30;;;;;;5071962;28;20743;-76
2022/10/11 09:03:24;;;;;;;0.50;0.30;;;29.90;56.20;;;;;;5072502;28;20786;-76
2022/10/11 09:06:08;;;;;;;1.87;0.67;;;29.90;58.20;;;;;;5071616;28;20427;-76
2022/10/11 09:08:54;;;;;;;0.50;0.30;;;28.80;58.30;;;;;;5071811;28;20467;-76
2022/10/11 09:11:30;;;;;;;0.50;0.30;;;29.10;57.30;;;;;;5071336;28;20459;-76
2022/10/11 09:14:21;;;;;;;0.50;0.30;;;30.00;56.00;;;;;;5070538;28;20531;-76
2022/10/11 09:16:58;;;;;;;0.50;0.40;;;30.70;56.10;;;;;;5071703;28;20451;-76
2022/10/11 09:19:51;;;;;;;0.50;0.30;;;31.20;56.00;;;;;;5071248;28;20436;-77
2022/10/11 09:22:28;;;;;;;0.50;0.40;;;31.50;55.10;;;;;;5071044;28;20543;-75
2022/10/11 09:25:13;;;;;;;0.50;0.30;;;30.80;53.70;;;;;;5071746;28;20424;-76
2022/10/11 09:27:49;;;;;;;0.50;0.30;;;29.60;53.90;;;;;;5070821;28;20432;-76
2022/10/11 09:30:19;;;;;;;0.50;0.30;;;28.40;56.20;;;;;;5071651;28;20814;-74
2022/10/11 09:32:51;;;;;;;0.50;0.30;;;26.90;56.20;;;;;;5071314;28;20448;-76
2022/10/11 09:35:21;;;;;;;0.50;0.30;;;26.00;59.60;;;;;;5073046;28;20438;-78
2022/10/11 09:37:55;;;;;;;0.50;0.30;;;24.70;60.20;;;;;;5072959;28;20493;-78
2022/10/11 09:40:34;;;;;;;0.50;0.40;;;23.40;63.10;;;;;;5073330;28;20448;-78
2022/10/11 09:43:01;;;;;;;0.50;0.30;;;22.40;64.40;;;;;;5072160;28;20631;-77
2022/10/11 09:45:28;;;;;;;0.50;0.30;;;21.50;68.80;;;;;;5070941;28;20439;-77
2022/10/11 09:47:59;;;;;;;2.10;2.00;;;20.80;69.70;;;;;;5071131;28;20954;-77
2022/10/11 09:50:29;;;;;;;0.50;0.30;;;20.30;73.40;;;;;;5070809;28;20470;-77
2022/10/11 09:52:59;;;;;;;4.30;2.23;;;19.80;74.50;;;;;;5071257;28;20436;-77
2022/10/11 09:55:35;;;;;;;0.50;0.30;;;19.40;75.40;;;;;;5070635;28;20440;-77
2022/10/11 09:58:03;;;;;;;2.17;1.20;;;19.00;78.50;;;;;;5071103;28;20435;-76
2022/10/11 10:00:32;;;;;;;0.50;0.30;;;18.80;79.40;;;;;;5071593;28;20490;-77
2022/10/11 10:03:01;;;;;;;0.50;0.40;;;18.70;83.00;;;;;;5071064;28;20806;-77
2022/10/11 10:05:31;;;;;;;0.50;0.30;;;18.70;90.80;;;;;;5070911;28;20436;-77
2022/10/11 10:08:01;;;;;;;0.50;0.30;;;18.70;91.30;;;;;;5072241;28;20470;-77
2022/10/11 10:10:33;;;;;;;0.50;0.30;;;18.90;92.40;;;;;;5075202;28;20460;-77
2022/10/11 10:13:03;;;;;;;0.50;0.30;;;19.20;90.70;;;;;;5075476;28;20440;-77
2022/10/11 10:15:32;;;;;;;0.50;0.37;;;19.20;87.20;;;;;;5077465;28;20938;-77
2022/10/11 10:17:59;;;;;;;0.50;0.30;;;19.70;87.90;;;;;;5079791;28;20446;-77
2022/10/11 10:20:31;;;;;;;0.50;0.30;;;19.90;78.50;;;;;;5080320;28;20518;-77
2022/10/11 10:22:59;;;;;;;0.50;0.30;;;20.30;75.00;;;;;;5080632;28;20802;-77
2022/10/11 10:25:33;;;;;;;0.50;0.30;;;20.80;74.20;;;;;;5079721;28;20444;-77
2022/10/11 10:28:03;;;;;;;0.50;0.30;;;21.10;71.40;;;;;;5079147;28;20430;-77
2022/10/11 10:30:31;;;;;;;2.03;1.33;;;21.50;75.40;;;;;;5078180;28;20455;-77
2022/10/11 10:33:02;;;;;;;0.50;0.40;;;21.60;76.60;;;;;;5078780;28;20441;-77
2022/10/11 10:35:34;;;;;;;0.50;0.30;;;21.60;71.10;;;;;;5078051;28;20425;-76
2022/10/11 10:38:08;;;;;;;0.90;0.90;;;21.50;71.10;;;;;;5076695;28;20431;-77
2022/10/11 10:40:44;;;;;;;0.50;0.30;;;21.40;68.60;;;;;;5074694;28;20544;-77
2022/10/11 10:43:16;;;;;;;1.93;0.60;;;21.60;68.00;;;;;;5074528;28;20522;-77
2022/10/11 10:46:02;;;;;;;0.50;0.40;;;22.10;67.60;;;;;;5073957;28;20526;-77
2022/10/11 10:48:34;;;;;;;0.50;0.30;;;23.10;68.20;;;;;;5074192;28;20432;-75
2022/10/11 10:51:09;;;;;;;0.50;0.30;;;24.00;66.00;;;;;;5074166;28;20463;-77
2022/10/11 10:53:41;;;;;;;0.60;0.57;;;24.70;67.00;;;;;;5074187;28;20436;-77
2022/10/11 10:56:15;;;;;;;0.50;0.30;;;25.40;64.60;;;;;;5073641;28;20874;-77
2022/10/11 10:59:03;;;;;;;0.50;0.30;;;25.50;62.20;;;;;;5074167;28;20428;-77
2022/10/11 11:01:32;;;;;;;0.50;0.30;;;26.40;63.80;;;;;;5074286;28;20462;-77
2022/10/11 11:04:07;;;;;;;0.50;0.30;;;26.60;58.60;;;;;;5073724;28;20439;-77
2022/10/11 11:06:41;;;;;;;0.53;0.40;;;25.60;58.20;;;;;;5074293;28;20485;-77
2022/10/11 11:09:25;;;;;;;0.50;0.30;;;25.80;59.60;;;;;;5074569;28;20542;-77
2022/10/11 11:12:03;;;;;;;0.50;0.50;;;25.40;61.00;;;;;;5074135;28;20530;-77
2022/10/11 11:14:44;;;;;;;0.50;0.30;;;25.60;58.40;;;;;;5073507;28;20546;-78
2022/10/11 11:17:19;;;;;;;0.50;0.30;;;26.20;59.90;;;;;;5074262;28;20523;-75
2022/10/11 11:19:55;;;;;;;0.50;0.30;;;26.70;59.70;;;;;;5073418;28;20543;-77
2022/10/11 11:22:39;;;;;;;0.50;0.30;;;26.20;57.40;;;;;;5075850;28;20420;-77
2022/10/11 11:25:19;;;;;;;0.50;0.40;;;25.40;58.50;;;;;;5076204;28;20519;-78
2022/10/11 11:27:58;;;;;;;0.50;0.30;;;24.60;59.20;;;;;;5074400;28;20431;-78
2022/10/11 11:30:36;;;;;;;0.50;0.30;;;23.70;63.00;;;;;;5074514;28;20475;-78
2022/10/11 11:33:11;;;;;;;0.50;0.30;;;23.60;60.90;;;;;;5074813;28;20805;-78
2022/10/11 11:35:42;;;;;;;0.50;0.40;;;23.10;63.00;;;;;;5073979;28;20458;-78
2022/10/11 11:38:16;;;;;;;0.50;0.30;;;22.10;64.50;;;;;;5074542;28;20479;-77
2022/10/11 11:40:45;;;;;;;0.50;0.30;;;22.00;65.50;;;;;;5074745;28;20900;-77
2022/10/11 11:43:19;;;;;;;0.50;0.30;;;22.20;68.00;;;;;;5074816;28;20444;-78
2022/10/11 11:45:50;;;;;;;0.50;0.30;;;22.50;66.70;;;;;;5074217;28;20439;-78
2022/10/11 11:48:20;;;;;;;0.50;0.30;;;22.60;64.80;;;;;;5074546;28;20429;-78
2022/10/11 11:50:53;;;;;;;0.50;0.30;;;22.60;63.80;;;;;;5074358;28;20490;-78
2022/10/11 11:53:32;;;;;;;0.50;0.30;;;23.10;64.80;;;;;;5074603;28;20444;-75
2022/10/11 11:56:03;;;;;;;0.50;0.30;;;23.70;62.00;;;;;;5073661;28;20520;-78
2022/10/11 11:58:38;;;;;;;0.50;0.30;;;24.00;59.10;;;;;;5074366;28;20461;-78
2022/10/11 12:01:15;;;;;;;0.50;0.30;;;24.60;59.20;;;;;;5074781;28;20467;-79
2022/10/11 12:03:47;;;;;;;0.50;0.30;;;25.20;58.40;;;;;;5074627;28;20428;-79
2022/10/11 12:06:25;;;;;;;0.50;0.30;;;25.60;56.60;;;;;;5074176;28;20447;-79
2022/10/11 12:09:04;;;;;;;0.50;0.30;;;25.50;57.00;;;;;;5074703;28;20428;-78
2022/10/11 12:11:42;;;;;;;0.50;0.30;;;24.90;56.80;;;;;;5074615;28;20508;-78
2022/10/11 12:14:23;;;;;;;0.50;0.30;;;25.00;58.80;;;;;;5074464;28;20471;-79
2022/10/11 12:17:19;;;;;;;0.50;0.30;;;25.00;57.40;;;;;;5074522;28;20444;-78
2022/10/11 12:20:19;;;;;;;0.50;0.30;;;24.40;57.70;;;;;;5074457;28;20456;-78
2022/10/11 12:23:00;;;;;;;0.50;0.30;;;23.40;57.70;;;;;;5073897;28;20529;-78
2022/10/11 12:25:43;;;;;;;0.50;0.30;;;23.40;62.30;;;;;;5075493;28;20486;-78
2022/10/11 12:28:48;;;;;;;0.50;0.30;;;23.90;61.00;;;;;;5073610;28;20467;-78
2022/10/11 12:31:22;;;;;;;0.50;0.30;;;24.00;59.40;;;;;;5072860;28;20448;-78
2022/10/11 12:33:52;;;;;;;0.50;0.33;;;24.20;59.30;;;;;;5073255;28;20830;-78
2022/10/11 12:36:36;;;;;;;0.50;0.30;;;24.30;57.70;;;;;;5074246;28;20437;-77
2022/10/11 12:39:46;;;;;;;0.50;0.30;;;24.10;57.40;;;;;;5079632;28;20563;-77
2022/10/11 12:42:29;;;;;;;0.50;0.30;;;23.30;58.30;;;;;;5087001;28;20527;-77
2022/10/11 12:45:29;;;;;;;1.13;1.03;;;22.60;59.30;;;;;;5073708;28;20435;-77
2022/10/11 12:48:06;;;;;;;0.50;0.30;;;21.80;62.00;;;;;;5073255;28;20481;-77
2022/10/11 12:50:44;;;;;;;0.50;0.40;;;21.20;64.70;;;;;;5072880;28;21082;-77
2022/10/11 12:53:24;;;;;;;0.50;0.30;;;20.60;65.70;;;;;;5075572;28;20431;-77
2022/10/11 12:55:59;;;;;;;0.50;0.30;;;20.50;67.30;;;;;;5072880;28;20543;-78
2022/10/11 12:58:37;;;;;;;0.50;0.30;;;20.80;68.30;;;;;;5072725;28;20444;-78
2022/10/11 13:01:12;;;;;;;0.50;0.30;;;21.40;64.60;;;;;;5073077;28;20495;-78
2022/10/11 13:03:42;;;;;;;0.50;0.30;;;22.60;64.50;;;;;;5072360;28;20653;-78
2022/10/11 13:06:15;;;;;;;0.50;0.30;;;24.00;62.60;;;;;;5073308;28;21138;-78
2022/10/11 13:08:45;;;;;;;0.50;0.30;;;24.60;58.10;;;;;;5073539;28;20426;-78
2022/10/11 13:11:18;;;;;;;0.50;0.30;;;25.30;57.50;;;;;;5073140;28;20476;-78
2022/10/11 13:13:52;;;;;;;0.50;0.30;;;25.60;56.30;;;;;;5072625;28;20928;-78